Gunnison, CO

05:19 AM MDT am 20. Oktober 2014 (GMT -0600)
Taylor St. | Change Station
CLOSE
Current Station
Persönliche Wetterstationen
Location: Gunnison, CO
Höhe: 7687 ft
Wetterstationen in der Umgebung

Höhe 7687 ft 38.54 °N, 106.92 °W | Updated 1 minute ago

Clear
Heiter
29.1 °F
gefühlte 29 °F
N
0.0
Wind Wechselnd Wind aus Süd-Südost

Heute
Max. -- | schwach -- °F
--% Regenrisiko
Gestern
Max. -- | schwach -- °F
Precip. -- inch
7:21 AM 6:22 PM
Letztes Viertel, 11% visible
Druck 30.32 inch
Sichtweite 10.0 Meilen
Wolken Heiter
Windchill 29 °F
Taupunkt 29 °F
Feuchtigkeit 98%
Regen 0.00 inch
Schneehöhe Nicht verfügbar..
UV 0 von 12
Pollen 1.80 von 12
Luftqualität Nicht verfügbar..
Flu Activity Sporadic
METAR KGUC 201115Z AUTO 00000KT 10SM CLR 01/M03 A3032 RMK AO1

More Conditions Fewer Conditions

Druck 30.32 inch
Sichtweite 10.0 Meilen
Wolken Heiter
Windchill 29 °F
Taupunkt 29 °F
Feuchtigkeit 98%
Regen 0.00 inch
Schneehöhe Nicht verfügbar..
UV 0 von 12
Pollen 1.80 von 12
Luftqualität Nicht verfügbar..
Flu Activity Sporadic
METAR KGUC 201115Z AUTO 00000KT 10SM CLR 01/M03 A3032 RMK AO1

More Conditions Fewer Conditions

10-Day Weather Forecast

Almanac

Astronomie

Oct. 20, 2014 Aufgang Untergang
Genaue Zeit 07:21 MDT 18:22 MDT
Bürgerliche Dämmerung 06:54 MDT 18:49 MDT
Nautische Dämmerung 06:24 MDT 19:20 MDT
Astronomische Dämmerung 05:53 MDT 19:50 MDT
Mond 04:15 MDT 16:44 MDT
Länge des sichtbaren Lichts 11h 54m
Tageslänge
11h 00m
Letztes Viertel, 11% of the Moon is Illuminated
Heute
Letztes Viertel
Okt 23
Neu
Okt 30
Erstes Viertel
Nov 6
Vollmond
Nov 14
Letztes Viertel

Heutige Rekorde

State Highs State Lows

Community

WunderPhotos

Upload Photos

1,763,338 Fotos hochgeladen!

Nearby

Schneehöhe

Station Depth Höhe
Butte 0 in 10160 ft
Park Cone 0 in 9600 ft
Cochetopa Pass 0 in 10020 ft
Schofield Pass 1 in 10700 ft
Porphyry Creek 0 in 10760 ft

Erdbebenaktivität

Stadt Distance Mag. Time & Date
No recent earthquake activity has been reported nearby.
Minimum magnitude displayed is 2.5.

küstennahe Wassertemperaturen

Ort Temperatur
Kein Stationsbericht

Wetterstationen in der Umgebung